createdAt,value
2019-04-23T00:02:58.475Z,6.06
2019-04-23T00:08:20.087Z,6.34
2019-04-23T00:13:21.146Z,6.10
2019-04-23T00:18:37.379Z,6.35
2019-04-23T00:23:49.807Z,6.36
2019-04-23T00:28:51.944Z,6.41
2019-04-23T00:33:59.038Z,6.15
2019-04-23T00:38:59.275Z,6.34
2019-04-23T00:44:09.115Z,6.72
2019-04-23T00:49:22.092Z,6.87
2019-04-23T00:54:26.361Z,6.89
2019-04-23T00:59:26.916Z,6.59
2019-04-23T01:04:39.698Z,6.89
2019-04-23T01:09:48.919Z,7.31
2019-04-23T01:14:57.381Z,7.12
2019-04-23T01:20:01.722Z,7.58
2019-04-23T01:24:50.298Z,7.59
2019-04-23T01:35:25.302Z,8.03
2019-04-23T01:40:39.360Z,7.69
2019-04-23T01:45:30.739Z,7.95
2019-04-23T01:50:54.281Z,8.33
2019-04-23T01:56:01.347Z,8.03
2019-04-23T02:01:06.973Z,8.24
2019-04-23T02:06:16.987Z,8.17
2019-04-23T02:11:21.135Z,8.14
2019-04-23T02:16:25.897Z,8.17
2019-04-23T02:21:36.578Z,8.51
2019-04-23T02:26:43.912Z,8.24
2019-04-23T02:32:01.334Z,8.26
2019-04-23T02:42:39.633Z,8.97
2019-04-23T02:47:23.604Z,8.81
2019-04-23T02:52:28.904Z,8.94
2019-04-23T02:57:35.508Z,9.02
2019-04-23T03:02:48.226Z,9.12
2019-04-23T03:07:53.282Z,9.16
2019-04-23T03:18:29.016Z,9.23
2019-04-23T03:23:29.021Z,9.39
2019-04-23T03:48:54.860Z,10.32
2019-04-23T03:54:23.475Z,10.38
2019-04-23T03:59:11.941Z,10.43
2019-04-23T04:04:23.078Z,10.42
2019-04-23T04:09:34.188Z,10.60
2019-04-23T04:30:01.149Z,10.35
2019-04-23T04:45:30.517Z,10.39
2019-04-23T04:50:19.247Z,10.31
2019-04-23T04:55:36.272Z,11.08
2019-04-23T05:00:59.170Z,10.54
2019-04-23T05:06:00.976Z,10.97
2019-04-23T05:11:05.416Z,10.75
2019-04-23T05:16:07.950Z,11.30
2019-04-23T05:26:20.898Z,10.78
2019-04-23T05:31:23.207Z,11.66
2019-04-23T05:41:30.430Z,11.65
2019-04-23T05:46:45.388Z,11.45
2019-04-23T05:51:55.556Z,11.71
2019-04-23T05:57:00.349Z,11.56
2019-04-23T06:01:57.447Z,11.19
2019-04-23T06:07:28.759Z,11.18
2019-04-23T06:12:26.692Z,11.17
2019-04-23T06:17:29.679Z,11.93
2019-04-23T06:27:39.959Z,11.37
2019-04-23T06:43:15.110Z,11.84
2019-04-23T06:48:23.795Z,11.09
2019-04-23T06:53:27.309Z,11.91
2019-04-23T07:03:43.236Z,10.77
2019-04-23T07:09:05.718Z,11.62
2019-04-23T07:13:55.809Z,11.00
2019-04-23T07:19:09.635Z,10.07
2019-04-23T07:29:16.079Z,10.31
2019-04-23T07:34:20.393Z,10.11
2019-04-23T07:39:27.324Z,9.57
2019-04-23T07:49:50.615Z,10.05
2019-04-23T08:00:07.886Z,9.77
2019-04-23T08:05:21.516Z,9.25
2019-04-23T08:10:17.010Z,9.52
2019-04-23T08:20:42.035Z,9.63
2019-04-23T08:25:55.875Z,9.31
2019-04-23T08:30:51.027Z,8.53
2019-04-23T08:36:09.481Z,8.48
2019-04-23T08:41:24.520Z,8.89
2019-04-23T09:01:59.431Z,7.75
2019-04-23T09:06:53.374Z,7.85
2019-04-23T09:11:54.478Z,8.75
2019-04-23T09:17:24.783Z,7.63
2019-04-23T09:22:25.109Z,8.03
2019-04-23T09:27:30.023Z,7.68
2019-04-23T09:37:34.735Z,7.49
2019-04-23T09:42:46.338Z,7.76
2019-04-23T09:47:50.493Z,7.41
2019-04-23T09:52:59.102Z,7.36
2019-04-23T09:57:51.877Z,7.30
2019-04-23T10:02:53.464Z,7.00
2019-04-23T10:07:54.470Z,7.10
2019-04-23T10:12:51.679Z,6.84
2019-04-23T10:18:00.400Z,6.33
2019-04-23T10:23:08.359Z,6.50
2019-04-23T10:28:16.778Z,6.64
2019-04-23T10:33:23.647Z,6.06
2019-04-23T10:38:32.765Z,6.46
2019-04-23T10:43:42.157Z,6.56
2019-04-23T10:49:32.131Z,6.36
2019-04-23T10:59:28.787Z,5.96
2019-04-23T11:04:44.760Z,5.37
2019-04-23T11:09:50.275Z,5.79
2019-04-23T11:15:02.047Z,5.79
2019-04-23T11:20:07.896Z,5.85
2019-04-23T11:25:20.479Z,5.85
2019-04-23T11:30:26.317Z,5.79
2019-04-23T11:35:31.028Z,5.66
2019-04-23T11:40:23.251Z,5.80
2019-04-23T11:45:51.156Z,6.24
2019-04-23T11:51:20.953Z,5.77
2019-04-23T11:55:52.075Z,6.43
2019-04-23T12:06:15.542Z,6.05
2019-04-23T12:16:31.982Z,5.60
2019-04-23T12:21:37.817Z,5.91
2019-04-23T12:26:45.540Z,5.68
2019-04-23T12:31:47.254Z,6.13
2019-04-23T12:36:50.909Z,6.30
2019-04-23T12:52:14.267Z,5.78
2019-04-23T12:57:29.884Z,5.50
2019-04-23T13:07:43.682Z,5.08
2019-04-23T13:13:04.617Z,5.26
2019-04-23T13:17:54.293Z,5.54
2019-04-23T13:23:08.599Z,5.19
2019-04-23T13:28:14.077Z,5.21
2019-04-23T13:33:21.094Z,5.19
2019-04-23T13:38:27.242Z,4.66
2019-04-23T13:43:40.174Z,5.23
2019-04-23T13:48:36.639Z,5.24
2019-04-23T13:53:53.009Z,4.99
2019-04-23T13:59:03.315Z,5.18
2019-04-23T14:09:04.751Z,5.53
2019-04-23T14:14:24.990Z,5.12
2019-04-23T14:19:07.574Z,5.55
2019-04-23T14:29:50.267Z,5.44
2019-04-23T14:40:02.482Z,5.93
2019-04-23T14:50:29.405Z,6.06
2019-04-23T14:55:45.717Z,5.93
2019-04-23T15:00:34.143Z,6.34
2019-04-23T15:10:56.694Z,6.37
2019-04-23T15:16:03.115Z,6.15
2019-04-23T15:21:19.219Z,6.05
2019-04-23T15:27:56.473Z,6.99
2019-04-23T15:31:19.147Z,7.13
2019-04-23T17:24:17.772Z,9.15
2019-04-23T17:29:16.094Z,9.10
2019-04-23T17:34:17.108Z,9.02
2019-04-23T17:39:18.097Z,8.86
2019-04-23T17:44:42.744Z,8.44
2019-04-23T17:49:51.184Z,8.37
2019-04-23T17:54:56.664Z,8.87
2019-04-23T18:05:11.050Z,9.13
2019-04-23T18:10:25.057Z,9.20
2019-04-23T18:15:15.689Z,8.52
2019-04-23T18:20:29.623Z,8.39
2019-04-23T18:30:40.596Z,9.43
2019-04-23T18:35:51.455Z,10.30
2019-04-23T18:41:05.281Z,9.84
2019-04-23T18:46:18.550Z,10.31
2019-04-23T18:51:05.167Z,10.15
2019-04-23T18:56:15.384Z,11.76
2019-04-23T19:01:36.687Z,10.32
2019-04-23T19:11:58.227Z,11.17
2019-04-23T19:32:08.815Z,11.41
2019-04-23T19:37:22.860Z,10.54
2019-04-23T19:42:31.222Z,11.28
2019-04-23T19:47:55.301Z,10.66
2019-04-23T19:53:08.078Z,10.37
2019-04-23T19:58:04.684Z,11.04
2019-04-23T20:03:22.221Z,11.83
2019-04-23T20:08:24.720Z,11.86
2019-04-23T20:13:31.456Z,12.45
2019-04-23T20:18:41.541Z,12.76
2019-04-23T20:23:58.977Z,12.15
2019-04-23T20:29:14.824Z,12.79
2019-04-23T20:34:12.764Z,12.71
2019-04-23T20:39:12.172Z,12.83
2019-04-23T20:44:12.141Z,11.81
2019-04-23T20:49:07.883Z,11.82
2019-04-23T20:59:25.060Z,12.44
2019-04-23T21:04:44.971Z,12.39
2019-04-23T21:10:00.938Z,12.37
2019-04-23T21:14:48.453Z,13.28
2019-04-23T21:20:08.866Z,13.47
2019-04-23T21:24:54.641Z,12.85
2019-04-23T21:30:16.395Z,13.29
2019-04-23T21:35:30.434Z,13.11
2019-04-23T21:40:56.892Z,14.03
2019-04-23T21:45:50.122Z,13.78
2019-04-23T21:50:51.171Z,13.48
2019-04-23T21:56:02.875Z,14.21
2019-04-23T22:01:06.534Z,13.65
2019-04-23T22:06:15.308Z,13.72
2019-04-23T22:11:42.883Z,13.84
2019-04-23T22:16:37.084Z,13.90
2019-04-23T22:21:43.307Z,14.11
2019-04-23T22:26:38.185Z,13.84
2019-04-23T22:31:47.145Z,14.08
2019-04-23T22:37:09.859Z,14.10
2019-04-23T22:42:13.267Z,14.94
2019-04-23T22:47:05.987Z,14.12
2019-04-23T22:57:44.633Z,14.34
2019-04-23T23:02:47.497Z,14.10
2019-04-23T23:07:57.797Z,13.60
2019-04-23T23:18:07.487Z,14.19
2019-04-23T23:23:13.180Z,13.83
2019-04-23T23:28:20.130Z,13.94
2019-04-23T23:33:11.023Z,14.02
2019-04-23T23:38:36.693Z,13.04
2019-04-23T23:43:24.148Z,12.62
2019-04-23T23:48:39.306Z,14.72
2019-04-23T23:53:58.721Z,13.83
2019-04-23T23:59:06.843Z,12.91
